createdAt,value
2022-10-10T00:01:48.306Z,8.98
2022-10-10T00:04:17.661Z,8.60
2022-10-10T00:06:47.031Z,8.98
2022-10-10T00:09:16.352Z,8.60
2022-10-10T00:11:45.767Z,8.43
2022-10-10T00:14:15.167Z,8.43
2022-10-10T00:16:44.542Z,8.73
2022-10-10T00:19:13.746Z,8.38
2022-10-10T00:21:43.302Z,8.30
2022-10-10T00:24:12.544Z,8.70
2022-10-10T00:26:41.991Z,8.90
2022-10-10T00:29:11.270Z,9.05
2022-10-10T00:31:40.512Z,8.35
2022-10-10T00:34:09.908Z,8.80
2022-10-10T00:36:40.193Z,8.68
2022-10-10T00:39:09.418Z,8.20
2022-10-10T00:41:38.784Z,8.00
2022-10-10T00:44:13.243Z,8.48
2022-10-10T00:46:43.040Z,8.38
2022-10-10T00:49:18.297Z,8.90
2022-10-10T00:51:49.888Z,8.53
2022-10-10T00:54:21.069Z,8.35
2022-10-10T00:56:53.540Z,8.83
2022-10-10T00:59:23.114Z,8.50
2022-10-10T01:01:52.718Z,8.43
2022-10-10T01:04:45.391Z,8.18
2022-10-10T01:07:16.761Z,8.48
2022-10-10T01:09:46.978Z,7.97
2022-10-10T01:12:37.747Z,8.58
2022-10-10T01:15:29.359Z,8.48
2022-10-10T01:18:16.833Z,8.10
2022-10-10T01:21:15.091Z,8.63
2022-10-10T01:24:04.212Z,8.68
2022-10-10T01:26:39.374Z,8.58
2022-10-10T01:29:21.102Z,8.68
2022-10-10T01:31:52.572Z,8.40
2022-10-10T01:34:36.993Z,8.75
2022-10-10T01:37:12.173Z,8.20
2022-10-10T01:39:47.276Z,8.53
2022-10-10T01:42:21.499Z,8.50
2022-10-10T01:44:52.512Z,9.08
2022-10-10T01:47:22.777Z,8.93
2022-10-10T01:49:57.352Z,9.15
2022-10-10T01:52:32.482Z,9.13
2022-10-10T01:55:30.523Z,8.65
2022-10-10T01:58:11.636Z,9.78
2022-10-10T02:00:44.268Z,9.30
2022-10-10T02:05:58.276Z,9.35
2022-10-10T02:08:36.822Z,9.70
2022-10-10T02:11:09.672Z,9.30
2022-10-10T02:13:53.888Z,9.25
2022-10-10T02:16:29.222Z,9.28
2022-10-10T02:19:02.776Z,9.73
2022-10-10T02:21:33.274Z,9.50
2022-10-10T02:24:04.930Z,8.70
2022-10-10T02:26:35.548Z,9.27
2022-10-10T02:29:16.744Z,8.58
2022-10-10T02:31:57.877Z,9.70
2022-10-10T02:34:30.438Z,9.33
2022-10-10T02:39:31.861Z,9.18
2022-10-10T02:42:01.325Z,9.05
2022-10-10T02:44:31.206Z,9.20
2022-10-10T02:47:00.958Z,9.68
2022-10-10T02:49:32.434Z,9.83
2022-10-10T02:52:02.192Z,9.28
2022-10-10T02:54:31.430Z,9.83
2022-10-10T02:57:00.658Z,8.95
2022-10-10T02:59:29.888Z,9.75
2022-10-10T03:01:59.145Z,9.53
2022-10-10T03:04:28.948Z,8.85
2022-10-10T03:06:58.344Z,9.80
2022-10-10T03:09:27.630Z,9.68
2022-10-10T03:11:57.125Z,9.55
2022-10-10T03:14:26.329Z,9.58
2022-10-10T03:16:55.569Z,9.38
2022-10-10T03:19:24.935Z,9.53
2022-10-10T03:21:54.235Z,9.05
2022-10-10T03:24:23.595Z,9.53
2022-10-10T03:26:52.820Z,9.60
2022-10-10T03:29:22.480Z,10.00
2022-10-10T03:31:51.671Z,8.75
2022-10-10T03:34:21.149Z,9.03
2022-10-10T03:36:50.359Z,9.60
2022-10-10T03:39:19.800Z,10.32
2022-10-10T03:41:50.416Z,9.25
2022-10-10T03:44:20.133Z,9.50
2022-10-10T03:46:49.459Z,9.98
2022-10-10T03:49:18.887Z,9.33
2022-10-10T03:51:48.396Z,10.38
2022-10-10T03:54:17.750Z,9.55
2022-10-10T03:56:47.161Z,10.18
2022-10-10T03:59:16.506Z,9.60
2022-10-10T04:01:45.837Z,9.48
2022-10-10T04:04:15.455Z,9.33
2022-10-10T04:06:44.881Z,9.93
2022-10-10T04:09:14.212Z,10.20
2022-10-10T04:11:43.604Z,9.90
2022-10-10T04:14:12.866Z,9.23
2022-10-10T04:16:42.082Z,9.55
2022-10-10T04:19:11.655Z,10.35
2022-10-10T04:21:40.871Z,9.40
2022-10-10T04:24:10.355Z,9.30
2022-10-10T04:26:39.602Z,10.50
2022-10-10T04:29:08.900Z,10.38
2022-10-10T04:31:38.309Z,9.70
2022-10-10T04:34:07.535Z,9.93
2022-10-10T04:36:36.923Z,10.15
2022-10-10T04:39:06.322Z,9.45
2022-10-10T04:41:35.617Z,9.80
2022-10-10T04:44:04.888Z,9.85
2022-10-10T04:46:34.367Z,9.78
2022-10-10T04:49:03.573Z,10.55
2022-10-10T04:51:33.088Z,10.28
2022-10-10T04:54:02.318Z,10.08
2022-10-10T04:56:31.545Z,10.15
2022-10-10T04:59:00.937Z,10.50
2022-10-10T05:01:30.354Z,10.50
2022-10-10T05:03:59.667Z,10.38
2022-10-10T05:06:28.907Z,10.18
2022-10-10T05:08:58.211Z,10.03
2022-10-10T05:11:27.786Z,10.20
2022-10-10T05:13:57.158Z,10.55
2022-10-10T05:16:26.560Z,10.32
2022-10-10T05:18:57.946Z,9.75
2022-10-10T05:21:27.229Z,10.58
2022-10-10T05:23:56.698Z,10.70
2022-10-10T05:26:26.891Z,9.93
2022-10-10T05:28:56.374Z,10.10
2022-10-10T05:31:25.652Z,10.70
2022-10-10T05:33:55.138Z,10.90
2022-10-10T05:36:24.356Z,11.00
2022-10-10T05:38:53.978Z,11.05
2022-10-10T05:41:23.213Z,11.48
2022-10-10T05:43:52.432Z,11.20
2022-10-10T05:46:24.401Z,11.28
2022-10-10T05:48:53.901Z,11.28
2022-10-10T05:51:23.366Z,11.88
2022-10-10T05:53:52.756Z,11.70
2022-10-10T05:56:23.283Z,12.30
2022-10-10T05:58:52.513Z,11.53
2022-10-10T06:01:21.869Z,11.57
2022-10-10T06:03:52.765Z,11.75
2022-10-10T06:06:22.650Z,11.80
2022-10-10T06:08:52.403Z,11.38
2022-10-10T06:11:23.502Z,11.15
2022-10-10T06:13:57.274Z,11.53
2022-10-10T06:16:28.112Z,11.03
2022-10-10T06:18:57.950Z,11.48
2022-10-10T06:21:27.162Z,11.25
2022-10-10T06:23:56.404Z,11.15
2022-10-10T06:26:25.640Z,11.28
2022-10-10T06:28:55.079Z,11.10
2022-10-10T06:31:24.328Z,10.68
2022-10-10T06:33:53.742Z,11.40
2022-10-10T06:36:22.958Z,10.88
2022-10-10T06:38:52.207Z,11.08
2022-10-10T06:41:21.478Z,11.05
2022-10-10T06:43:51.993Z,10.53
2022-10-10T06:46:21.247Z,10.60
2022-10-10T06:48:50.497Z,10.15
2022-10-10T06:51:20.262Z,9.88
2022-10-10T06:53:49.825Z,10.32
2022-10-10T06:56:26.279Z,9.85
2022-10-10T07:01:21.819Z,8.90
2022-10-10T07:03:51.494Z,9.25
2022-10-10T07:06:20.935Z,9.00
2022-10-10T07:08:50.398Z,8.45
2022-10-10T07:11:19.965Z,9.18
2022-10-10T07:13:51.069Z,8.83
2022-10-10T07:16:20.379Z,8.78
2022-10-10T07:18:49.671Z,8.48
2022-10-10T07:21:19.158Z,8.43
2022-10-10T07:23:48.371Z,8.73
2022-10-10T07:26:19.400Z,8.25
2022-10-10T07:28:49.061Z,9.10
2022-10-10T07:31:18.437Z,8.63
2022-10-10T07:33:50.667Z,8.85
2022-10-10T07:36:20.499Z,8.80
2022-10-10T07:38:54.743Z,9.05
2022-10-10T07:41:24.281Z,8.68
2022-10-10T07:43:57.314Z,9.33
2022-10-10T07:46:26.766Z,9.60
2022-10-10T07:48:56.959Z,9.60
2022-10-10T07:51:26.370Z,9.50
2022-10-10T07:53:55.764Z,9.28
2022-10-10T07:56:25.355Z,10.40
2022-10-10T07:58:54.876Z,9.78
2022-10-10T08:01:24.573Z,10.15
2022-10-10T08:03:54.094Z,9.15
2022-10-10T08:06:23.452Z,9.48
2022-10-10T08:08:52.801Z,8.53
2022-10-10T08:11:23.114Z,8.63
2022-10-10T08:13:52.810Z,8.55
2022-10-10T08:16:22.205Z,8.75
2022-10-10T08:18:51.484Z,7.50
2022-10-10T08:21:20.974Z,7.40
2022-10-10T08:23:50.243Z,7.60
2022-10-10T08:26:20.173Z,6.65
2022-10-10T08:28:49.570Z,7.03
2022-10-10T08:31:21.024Z,6.42
2022-10-10T08:33:51.722Z,6.85
2022-10-10T08:36:23.270Z,6.35
2022-10-10T08:38:56.282Z,6.45
2022-10-10T08:41:40.559Z,6.22
2022-10-10T08:44:21.578Z,6.80
2022-10-10T08:47:12.186Z,6.50
2022-10-10T08:49:50.456Z,7.20
2022-10-10T08:52:34.518Z,7.40
2022-10-10T08:55:07.698Z,7.12
2022-10-10T08:57:44.168Z,7.22
2022-10-10T09:00:16.819Z,7.85
2022-10-10T09:02:56.816Z,7.97
2022-10-10T09:05:41.169Z,7.42
2022-10-10T09:08:33.442Z,7.20
2022-10-10T09:11:11.805Z,7.40
2022-10-10T09:13:50.491Z,7.67
2022-10-10T09:16:39.529Z,7.58
2022-10-10T09:19:19.591Z,7.53
2022-10-10T09:21:49.398Z,8.00
2022-10-10T09:24:24.423Z,8.00
2022-10-10T09:26:59.126Z,7.53
2022-10-10T09:29:34.488Z,8.33
2022-10-10T09:32:26.227Z,8.20
2022-10-10T09:35:01.477Z,7.72
2022-10-10T09:37:47.290Z,8.83
2022-10-10T09:40:34.460Z,8.53
2022-10-10T09:43:19.933Z,7.95
2022-10-10T09:45:59.135Z,7.97
2022-10-10T09:48:34.787Z,7.95
2022-10-10T09:51:06.946Z,7.95
2022-10-10T09:53:36.171Z,7.28
2022-10-10T09:56:06.797Z,7.53
2022-10-10T09:58:44.576Z,7.40
2022-10-10T10:01:25.979Z,7.40
2022-10-10T10:04:26.941Z,7.10
2022-10-10T10:06:53.181Z,8.40
2022-10-10T10:09:24.063Z,9.00
2022-10-10T10:11:57.832Z,8.15
2022-10-10T10:14:28.518Z,8.15
2022-10-10T10:17:11.987Z,8.68
2022-10-10T10:19:46.468Z,10.60
2022-10-10T10:22:27.683Z,10.63
2022-10-10T10:24:57.344Z,8.88
2022-10-10T10:27:29.363Z,9.08
2022-10-10T10:29:59.927Z,10.38
2022-10-10T10:32:50.568Z,8.45
2022-10-10T10:35:37.647Z,9.05
2022-10-10T10:38:12.794Z,8.43
2022-10-10T10:40:45.190Z,8.58
2022-10-10T10:43:41.861Z,8.70
2022-10-10T10:46:37.103Z,7.90
2022-10-10T10:49:25.633Z,7.90
2022-10-10T10:51:57.824Z,8.90
2022-10-10T10:54:45.607Z,10.20
2022-10-10T10:57:36.865Z,7.55
2022-10-10T11:00:26.255Z,7.90
2022-10-10T11:03:15.072Z,8.08
2022-10-10T11:05:58.555Z,7.67
2022-10-10T11:08:31.009Z,7.37
2022-10-10T11:11:24.543Z,8.55
2022-10-10T11:14:12.178Z,7.40
2022-10-10T11:16:49.136Z,7.60
2022-10-10T11:19:27.617Z,6.75
2022-10-10T11:22:05.579Z,6.67
2022-10-10T11:24:44.444Z,7.25
2022-10-10T11:27:31.870Z,6.72
2022-10-10T11:30:06.961Z,6.75
2022-10-10T11:32:42.271Z,6.87
2022-10-10T11:35:26.307Z,6.75
2022-10-10T11:38:07.879Z,6.37
2022-10-10T11:40:49.159Z,7.03
2022-10-10T11:43:39.918Z,6.87
2022-10-10T11:46:27.607Z,6.40
2022-10-10T11:49:05.881Z,6.60
2022-10-10T11:51:38.421Z,7.50
2022-10-10T11:56:41.187Z,7.25
2022-10-10T11:59:13.768Z,7.35
2022-10-10T12:04:12.780Z,7.92
2022-10-10T12:06:50.776Z,7.85
2022-10-10T12:09:28.539Z,7.83
2022-10-10T12:12:08.972Z,8.23
2022-10-10T12:14:40.749Z,8.38
2022-10-10T12:17:25.310Z,8.18
2022-10-10T12:19:54.740Z,8.15
2022-10-10T12:22:29.713Z,8.30
2022-10-10T12:25:13.889Z,8.63
2022-10-10T12:27:45.886Z,8.60
2022-10-10T12:30:25.127Z,8.25
2022-10-10T12:32:55.267Z,8.53
2022-10-10T12:35:33.456Z,8.58
2022-10-10T12:38:11.800Z,8.35
2022-10-10T12:41:00.805Z,7.70
2022-10-10T12:43:51.278Z,8.33
2022-10-10T12:46:31.823Z,8.10
2022-10-10T12:49:03.389Z,8.20
2022-10-10T12:51:35.211Z,7.65
2022-10-10T12:54:06.301Z,7.28
2022-10-10T12:56:43.965Z,6.90
2022-10-10T12:59:24.747Z,6.55
2022-10-10T13:01:59.419Z,6.60
2022-10-10T13:04:28.875Z,6.50
2022-10-10T13:06:59.798Z,7.40
2022-10-10T13:09:35.621Z,7.10
2022-10-10T13:12:07.490Z,6.95
2022-10-10T13:14:42.101Z,5.53
2022-10-10T13:17:29.421Z,4.00
2022-10-10T13:20:01.207Z,2.95
2022-10-10T13:22:31.962Z,2.35
2022-10-10T13:25:03.761Z,2.75
2022-10-10T13:27:35.312Z,1.90
2022-10-10T13:30:06.600Z,1.40
2022-10-10T13:32:37.452Z,1.30
2022-10-10T13:35:15.413Z,2.60
2022-10-10T13:37:46.231Z,1.98
2022-10-10T13:40:16.644Z,3.12
2022-10-10T13:42:48.466Z,1.37
2022-10-10T13:45:32.582Z,2.45
2022-10-10T13:48:04.953Z,1.80
2022-10-10T13:50:51.227Z,4.00
2022-10-10T13:53:45.070Z,2.10
2022-10-10T13:56:30.930Z,1.98
2022-10-10T13:59:09.247Z,1.80
2022-10-10T14:01:47.629Z,1.98
2022-10-10T14:04:23.404Z,1.90
2022-10-10T14:07:13.803Z,2.05
2022-10-10T14:09:48.926Z,1.10
2022-10-10T14:12:28.816Z,0.88
2022-10-10T14:14:59.887Z,0.60
2022-10-10T14:17:29.946Z,0.70
2022-10-10T14:19:59.338Z,0.47
2022-10-10T14:22:28.618Z,0.70
2022-10-10T14:24:57.936Z,0.65
2022-10-10T14:27:28.202Z,0.80
2022-10-10T14:29:58.607Z,0.80
2022-10-10T14:32:27.968Z,1.27
2022-10-10T14:34:57.272Z,1.40
2022-10-10T14:37:28.821Z,1.50
2022-10-10T14:39:58.301Z,1.70
2022-10-10T14:42:27.754Z,1.70
2022-10-10T14:44:56.987Z,1.98
2022-10-10T14:47:26.591Z,2.08
2022-10-10T14:49:57.483Z,2.08
2022-10-10T14:52:26.703Z,2.02
2022-10-10T14:54:56.102Z,2.20
2022-10-10T14:57:25.388Z,1.75
2022-10-10T14:59:55.224Z,2.50
2022-10-10T15:02:24.450Z,2.15
2022-10-10T15:04:54.202Z,2.33
2022-10-10T15:07:23.421Z,2.00
2022-10-10T15:12:23.731Z,2.02
2022-10-10T15:14:53.024Z,2.08
2022-10-10T15:17:24.287Z,2.42
2022-10-10T15:19:53.790Z,2.42
2022-10-10T15:22:23.128Z,2.05
2022-10-10T15:24:52.602Z,2.08
2022-10-10T15:27:22.026Z,2.00
2022-10-10T15:29:51.312Z,1.98
2022-10-10T15:32:20.756Z,1.87
2022-10-10T15:34:50.501Z,2.22
2022-10-10T15:37:20.112Z,2.10
2022-10-10T15:39:49.327Z,2.17
2022-10-10T15:42:22.681Z,1.92
2022-10-10T15:44:49.725Z,2.45
2022-10-10T15:47:20.308Z,2.67
2022-10-10T15:49:50.196Z,2.30
2022-10-10T15:52:22.131Z,2.27
2022-10-10T15:54:51.629Z,2.30
2022-10-10T15:57:22.199Z,2.47
2022-10-10T15:59:51.586Z,2.27
2022-10-10T16:02:20.841Z,2.77
2022-10-10T16:04:50.126Z,3.25
2022-10-10T16:07:28.270Z,2.17
2022-10-10T16:09:50.535Z,2.50
2022-10-10T16:12:19.767Z,2.10
2022-10-10T16:14:49.285Z,2.15
2022-10-10T16:17:23.125Z,1.92
2022-10-10T16:19:49.731Z,2.83
2022-10-10T16:22:19.067Z,2.08
2022-10-10T16:25:21.146Z,2.17
2022-10-10T16:27:22.445Z,2.40
2022-10-10T16:29:50.847Z,1.90
2022-10-10T16:32:20.204Z,1.80
2022-10-10T16:34:50.199Z,1.72
2022-10-10T16:37:19.624Z,2.60
2022-10-10T16:39:48.854Z,2.40
2022-10-10T16:42:18.083Z,2.17
2022-10-10T16:44:47.731Z,2.00
2022-10-10T16:47:17.261Z,1.90
2022-10-10T16:49:46.658Z,1.80
2022-10-10T16:52:16.233Z,1.95
2022-10-10T16:54:49.869Z,2.50
2022-10-10T16:57:17.058Z,1.90
2022-10-10T16:59:46.423Z,1.70
2022-10-10T17:02:16.190Z,2.45
2022-10-10T17:04:45.590Z,2.37
2022-10-10T17:07:14.820Z,2.08
2022-10-10T17:09:44.362Z,2.40
2022-10-10T17:12:13.635Z,2.37
2022-10-10T17:14:42.997Z,2.60
2022-10-10T17:17:13.351Z,2.02
2022-10-10T17:19:43.213Z,2.40
2022-10-10T17:22:12.419Z,2.37
2022-10-10T17:24:41.891Z,2.20
2022-10-10T17:27:11.159Z,2.12
2022-10-10T17:29:40.600Z,2.35
2022-10-10T17:32:09.932Z,2.40
2022-10-10T17:34:39.335Z,2.40
2022-10-10T17:37:08.582Z,2.25
2022-10-10T17:39:38.434Z,2.12
2022-10-10T17:42:07.877Z,2.65
2022-10-10T17:44:43.599Z,2.67
2022-10-10T17:47:08.390Z,2.33
2022-10-10T17:49:37.784Z,3.60
2022-10-10T17:52:07.133Z,2.77
2022-10-10T17:54:36.558Z,2.75
2022-10-10T17:57:05.972Z,3.02
2022-10-10T17:59:35.364Z,3.00
2022-10-10T18:02:05.222Z,2.55
2022-10-10T18:04:34.548Z,2.58
2022-10-10T18:07:03.951Z,2.52
2022-10-10T18:09:33.270Z,2.77
2022-10-10T18:12:02.726Z,3.10
2022-10-10T18:14:32.045Z,3.17
2022-10-10T18:17:01.286Z,2.25
2022-10-10T18:19:30.645Z,2.58
2022-10-10T18:22:00.046Z,2.70
2022-10-10T18:24:29.453Z,2.45
2022-10-10T18:26:58.711Z,5.47
2022-10-10T18:29:28.058Z,12.75
2022-10-10T18:31:57.412Z,7.97
2022-10-10T18:34:26.818Z,6.15
2022-10-10T18:36:56.274Z,7.40
2022-10-10T18:39:29.414Z,7.72
2022-10-10T18:41:56.592Z,7.72
2022-10-10T18:44:25.881Z,7.20
2022-10-10T18:46:55.259Z,6.80
2022-10-10T18:49:25.405Z,6.10
2022-10-10T18:51:54.728Z,7.00
2022-10-10T18:54:25.898Z,5.62
2022-10-10T18:56:55.514Z,4.90
2022-10-10T18:59:24.998Z,4.17
2022-10-10T19:01:54.491Z,4.85
2022-10-10T19:04:24.508Z,6.58
2022-10-10T19:06:57.603Z,6.20
2022-10-10T19:09:27.151Z,6.55
2022-10-10T19:11:56.605Z,6.58
2022-10-10T19:14:26.045Z,7.50
2022-10-10T19:16:56.057Z,9.25
2022-10-10T19:19:25.544Z,10.23
2022-10-10T19:21:55.091Z,8.25
2022-10-10T19:24:24.665Z,6.53
2022-10-10T19:26:56.711Z,9.43
2022-10-10T19:29:27.119Z,8.15
2022-10-10T19:31:56.896Z,6.53
2022-10-10T19:34:26.321Z,6.45
2022-10-10T19:36:56.522Z,5.60
2022-10-10T19:39:26.019Z,5.75
2022-10-10T19:41:55.564Z,5.28
2022-10-10T19:44:24.977Z,7.30
2022-10-10T19:46:55.360Z,11.60
2022-10-10T19:49:24.937Z,12.98
2022-10-10T19:51:54.613Z,9.08
2022-10-10T19:54:24.134Z,8.35
2022-10-10T19:56:53.464Z,9.18
2022-10-10T19:59:22.876Z,7.87
2022-10-10T20:01:52.230Z,5.20
2022-10-10T20:04:21.640Z,6.28
2022-10-10T20:06:51.020Z,6.72
2022-10-10T20:09:20.672Z,11.57
2022-10-10T20:11:49.956Z,8.30
2022-10-10T20:14:19.220Z,10.58
2022-10-10T20:16:48.619Z,8.23
2022-10-10T20:19:18.458Z,8.65
2022-10-10T20:21:47.765Z,9.95
2022-10-10T20:24:17.433Z,12.63
2022-10-10T20:26:46.689Z,10.90
2022-10-10T20:29:16.164Z,10.08
2022-10-10T20:31:45.552Z,9.93
2022-10-10T20:34:15.031Z,12.53
2022-10-10T20:36:44.340Z,10.30
2022-10-10T20:39:14.434Z,10.15
2022-10-10T20:41:44.186Z,9.13
2022-10-10T20:44:15.344Z,9.28
2022-10-10T20:46:46.475Z,8.45
2022-10-10T20:49:19.057Z,7.70
2022-10-10T20:54:23.451Z,6.45
2022-10-10T20:56:52.793Z,6.87
2022-10-10T20:59:23.657Z,8.30
2022-10-10T21:01:53.269Z,7.95
2022-10-10T21:04:22.610Z,6.92
2022-10-10T21:06:51.852Z,6.67
2022-10-10T21:09:21.228Z,7.62
2022-10-10T21:11:53.629Z,8.03
2022-10-10T21:14:22.990Z,7.15
2022-10-10T21:16:54.185Z,6.95
2022-10-10T21:19:23.661Z,6.72
2022-10-10T21:21:53.083Z,6.53
2022-10-10T21:24:22.653Z,7.85
2022-10-10T21:26:52.169Z,8.48
2022-10-10T21:29:23.737Z,10.40
2022-10-10T21:34:56.438Z,8.80
2022-10-10T21:37:26.035Z,8.98
2022-10-10T21:39:55.240Z,8.73
2022-10-10T21:42:24.538Z,8.20
2022-10-10T21:44:53.838Z,8.23
2022-10-10T21:47:23.225Z,8.45
2022-10-10T21:49:53.059Z,8.18
2022-10-10T21:52:22.310Z,7.40
2022-10-10T21:54:52.503Z,6.90
2022-10-10T21:57:21.845Z,7.03
2022-10-10T21:59:51.483Z,7.37
2022-10-10T22:02:20.875Z,7.03
2022-10-10T22:04:54.782Z,7.00
2022-10-10T22:07:24.059Z,7.33
2022-10-10T22:09:53.304Z,6.87
2022-10-10T22:12:22.728Z,6.53
2022-10-10T22:14:52.282Z,7.22
2022-10-10T22:17:21.516Z,7.33
2022-10-10T22:19:50.791Z,7.30
2022-10-10T22:22:20.237Z,6.87
2022-10-10T22:24:49.659Z,7.70
2022-10-10T22:27:18.888Z,6.95
2022-10-10T22:29:48.562Z,7.08
2022-10-10T22:32:17.815Z,7.42
2022-10-10T22:34:48.964Z,7.00
2022-10-10T22:37:18.276Z,6.58
2022-10-10T22:39:47.533Z,6.20
2022-10-10T22:42:16.804Z,5.95
2022-10-10T22:44:46.802Z,7.30
2022-10-10T22:47:16.302Z,7.67
2022-10-10T22:49:45.531Z,7.10
2022-10-10T22:52:15.049Z,7.15
2022-10-10T22:54:44.513Z,7.15
2022-10-10T22:57:13.783Z,6.83
2022-10-10T22:59:43.282Z,8.83
2022-10-10T23:02:12.529Z,11.20
2022-10-10T23:04:42.039Z,11.10
2022-10-10T23:07:11.352Z,10.45
2022-10-10T23:09:40.622Z,10.68
2022-10-10T23:12:10.267Z,9.03
2022-10-10T23:14:40.100Z,8.43
2022-10-10T23:17:09.288Z,9.60
2022-10-10T23:19:38.684Z,7.78
2022-10-10T23:22:07.967Z,8.58
2022-10-10T23:24:40.641Z,8.40
2022-10-10T23:27:09.860Z,7.83
2022-10-10T23:29:39.302Z,8.20
2022-10-10T23:32:08.533Z,8.75
2022-10-10T23:34:37.964Z,9.38
2022-10-10T23:37:07.280Z,8.70
2022-10-10T23:39:36.767Z,14.93
2022-10-10T23:42:07.540Z,14.50
2022-10-10T23:44:36.918Z,13.93
2022-10-10T23:47:06.416Z,13.18
2022-10-10T23:49:35.997Z,17.82
2022-10-10T23:52:05.472Z,17.37
2022-10-10T23:54:34.755Z,14.87
2022-10-10T23:57:04.156Z,10.10
2022-10-10T23:59:33.479Z,9.00
